sensor_id;sensor_type;location;lat;lon;timestamp;pressure;altitude;pressure_sealevel;temperature;humidity
14902;BME280;7542;49.078;9.194;2023-03-18T00:00:30;98145.97;;;28.05;28.96
14902;BME280;7542;49.078;9.194;2023-03-18T00:01:33;98143.25;;;28.05;29.11
14902;BME280;7542;49.078;9.194;2023-03-18T00:02:37;98149.75;;;28.04;29.17
14902;BME280;7542;49.078;9.194;2023-03-18T00:03:39;98140.88;;;28.04;29.05
14902;BME280;7542;49.078;9.194;2023-03-18T00:04:41;98142.16;;;28.06;28.97
14902;BME280;7542;49.078;9.194;2023-03-18T00:05:43;98149.44;;;28.06;28.96
14902;BME280;7542;49.078;9.194;2023-03-18T00:06:46;98140.06;;;28.03;29.08
14902;BME280;7542;49.078;9.194;2023-03-18T00:07:48;98142.75;;;28.03;29.10
14902;BME280;7542;49.078;9.194;2023-03-18T00:08:50;98137.66;;;28.01;29.20
14902;BME280;7542;49.078;9.194;2023-03-18T00:09:53;98135.53;;;27.98;29.05
14902;BME280;7542;49.078;9.194;2023-03-18T00:10:54;98142.53;;;27.99;29.04
14902;BME280;7542;49.078;9.194;2023-03-18T00:11:57;98141.16;;;28.02;29.09
14902;BME280;7542;49.078;9.194;2023-03-18T00:13:01;98136.06;;;28.00;29.05
14902;BME280;7542;49.078;9.194;2023-03-18T00:14:06;98137.13;;;27.99;28.93
14902;BME280;7542;49.078;9.194;2023-03-18T00:15:12;98143.31;;;28.00;28.92
14902;BME280;7542;49.078;9.194;2023-03-18T00:16:15;98140.94;;;27.98;29.10
14902;BME280;7542;49.078;9.194;2023-03-18T00:17:18;98137.94;;;28.00;28.99
14902;BME280;7542;49.078;9.194;2023-03-18T00:18:20;98135.53;;;27.98;28.90
14902;BME280;7542;49.078;9.194;2023-03-18T00:19:22;98138.53;;;27.97;28.95
14902;BME280;7542;49.078;9.194;2023-03-18T00:20:26;98138.03;;;27.95;29.06
14902;BME280;7542;49.078;9.194;2023-03-18T00:21:39;98140.94;;;27.98;29.09
14902;BME280;7542;49.078;9.194;2023-03-18T00:22:41;98144.72;;;27.97;29.05
14902;BME280;7542;49.078;9.194;2023-03-18T00:23:44;98145.31;;;27.94;29.15
14902;BME280;7542;49.078;9.194;2023-03-18T00:24:46;98145.81;;;27.96;28.95
14902;BME280;7542;49.078;9.194;2023-03-18T00:25:53;98149.59;;;27.95;28.97
14902;BME280;7542;49.078;9.194;2023-03-18T00:26:55;98147.72;;;27.96;29.02
14902;BME280;7542;49.078;9.194;2023-03-18T00:27:58;98153.41;;;27.94;29.12
14902;BME280;7542;49.078;9.194;2023-03-18T00:29:00;98148.31;;;27.93;29.08
14902;BME280;7542;49.078;9.194;2023-03-18T00:30:03;98156.41;;;27.93;29.05
14902;BME280;7542;49.078;9.194;2023-03-18T00:31:09;98153.09;;;27.96;28.96
14902;BME280;7542;49.078;9.194;2023-03-18T00:32:12;98152.59;;;27.94;28.92
14902;BME280;7542;49.078;9.194;2023-03-18T00:33:16;98147.50;;;27.92;28.90
14902;BME280;7542;49.078;9.194;2023-03-18T00:34:18;98147.50;;;27.92;28.96
14902;BME280;7542;49.078;9.194;2023-03-18T00:35:22;98152.09;;;27.92;28.89
14902;BME280;7542;49.078;9.194;2023-03-18T00:36:25;98151.31;;;27.91;28.90
14902;BME280;7542;49.078;9.194;2023-03-18T00:37:27;98148.91;;;27.90;28.96
14902;BME280;7542;49.078;9.194;2023-03-18T00:38:32;98155.59;;;27.92;28.99
14902;BME280;7542;49.078;9.194;2023-03-18T00:39:36;98158.28;;;27.92;28.89
14902;BME280;7542;49.078;9.194;2023-03-18T00:40:38;98164.78;;;27.91;29.05
14902;BME280;7542;49.078;9.194;2023-03-18T00:41:44;98159.69;;;27.90;28.99
14902;BME280;7542;49.078;9.194;2023-03-18T00:42:46;98161.28;;;27.91;28.98
14902;BME280;7542;49.078;9.194;2023-03-18T00:43:49;98163.19;;;27.90;28.98
14902;BME280;7542;49.078;9.194;2023-03-18T00:44:54;98169.06;;;27.92;29.11
14902;BME280;7542;49.078;9.194;2023-03-18T00:45:57;98166.13;;;27.89;28.87
14902;BME280;7542;49.078;9.194;2023-03-18T00:47:00;98162.63;;;27.88;29.05
14902;BME280;7542;49.078;9.194;2023-03-18T00:48:02;98163.75;;;27.87;29.02
14902;BME280;7542;49.078;9.194;2023-03-18T00:49:06;98162.13;;;27.86;29.11
14902;BME280;7542;49.078;9.194;2023-03-18T00:50:10;98169.13;;;27.87;29.15
14902;BME280;7542;49.078;9.194;2023-03-18T00:51:14;98170.22;;;27.86;28.93
14902;BME280;7542;49.078;9.194;2023-03-18T00:52:17;98163.25;;;27.85;29.00
14902;BME280;7542;49.078;9.194;2023-03-18T00:53:20;98170.81;;;27.83;29.03
14902;BME280;7542;49.078;9.194;2023-03-18T00:54:22;98167.03;;;27.84;29.16
14902;BME280;7542;49.078;9.194;2023-03-18T00:55:26;98173.22;;;27.85;29.02
14902;BME280;7542;49.078;9.194;2023-03-18T00:56:30;98165.63;;;27.87;28.97
14902;BME280;7542;49.078;9.194;2023-03-18T00:57:33;98166.22;;;27.84;29.09
14902;BME280;7542;49.078;9.194;2023-03-18T00:58:35;98165.94;;;27.85;28.98
14902;BME280;7542;49.078;9.194;2023-03-18T00:59:37;98170.81;;;27.83;29.03
14902;BME280;7542;49.078;9.194;2023-03-18T01:00:39;98163.84;;;27.82;28.90
14902;BME280;7542;49.078;9.194;2023-03-18T01:01:42;98169.22;;;27.82;28.91
14902;BME280;7542;49.078;9.194;2023-03-18T01:02:43;98168.41;;;27.82;29.01
14902;BME280;7542;49.078;9.194;2023-03-18T01:03:47;98168.41;;;27.82;28.89
14902;BME280;7542;49.078;9.194;2023-03-18T01:04:51;98169.22;;;27.82;28.94
14902;BME280;7542;49.078;9.194;2023-03-18T01:05:53;98167.13;;;27.79;29.09
14902;BME280;7542;49.078;9.194;2023-03-18T01:06:57;98167.91;;;27.80;28.90
14902;BME280;7542;49.078;9.194;2023-03-18T01:07:59;98167.63;;;27.81;28.95
14902;BME280;7542;49.078;9.194;2023-03-18T01:09:03;98165.22;;;27.80;29.02
14902;BME280;7542;49.078;9.194;2023-03-18T01:10:07;98160.91;;;27.79;28.93
14902;BME280;7542;49.078;9.194;2023-03-18T01:11:10;98160.09;;;27.78;28.97
14902;BME280;7542;49.078;9.194;2023-03-18T01:12:12;98163.59;;;27.79;28.95
14902;BME280;7542;49.078;9.194;2023-03-18T01:13:14;98162.00;;;27.78;29.02
14902;BME280;7542;49.078;9.194;2023-03-18T01:14:18;98161.19;;;27.77;28.95
14902;BME280;7542;49.078;9.194;2023-03-18T01:15:21;98159.59;;;27.76;29.04
14902;BME280;7542;49.078;9.194;2023-03-18T01:16:23;98168.97;;;27.79;28.97
14902;BME280;7542;49.078;9.194;2023-03-18T01:17:26;98162.28;;;27.76;29.10
14902;BME280;7542;49.078;9.194;2023-03-18T01:18:28;98158.78;;;27.76;28.92
14902;BME280;7542;49.078;9.194;2023-03-18T01:19:31;98155.00;;;27.77;29.03
14902;BME280;7542;49.078;9.194;2023-03-18T01:20:33;98158.78;;;27.76;28.93
14902;BME280;7542;49.078;9.194;2023-03-18T01:21:36;98157.69;;;27.77;29.03
14902;BME280;7542;49.078;9.194;2023-03-18T01:22:39;98152.31;;;27.77;28.90
14902;BME280;7542;49.078;9.194;2023-03-18T01:23:44;98155.31;;;27.75;29.03
14902;BME280;7542;49.078;9.194;2023-03-18T01:24:46;98155.81;;;27.77;28.95
14902;BME280;7542;49.078;9.194;2023-03-18T01:25:48;98159.09;;;27.74;29.11
14902;BME280;7542;49.078;9.194;2023-03-18T01:26:49;98160.19;;;27.73;28.98
14902;BME280;7542;49.078;9.194;2023-03-18T01:27:52;98164.47;;;27.74;28.90
14902;BME280;7542;49.078;9.194;2023-03-18T01:28:54;98162.09;;;27.72;28.92
14902;BME280;7542;49.078;9.194;2023-03-18T01:29:56;98164.78;;;27.72;28.96
14902;BME280;7542;49.078;9.194;2023-03-18T01:30:59;98164.78;;;27.72;29.03
14902;BME280;7542;49.078;9.194;2023-03-18T01:32:01;98170.16;;;27.72;28.98
14902;BME280;7542;49.078;9.194;2023-03-18T01:33:05;98163.19;;;27.71;29.11
14902;BME280;7542;49.078;9.194;2023-03-18T01:34:08;98167.47;;;27.72;29.12
14902;BME280;7542;49.078;9.194;2023-03-18T01:35:11;98157.00;;;27.71;28.95
14902;BME280;7542;49.078;9.194;2023-03-18T01:36:13;98165.06;;;27.71;28.84
14902;BME280;7542;49.078;9.194;2023-03-18T01:37:16;98160.78;;;27.70;28.98
14902;BME280;7542;49.078;9.194;2023-03-18T01:38:21;98164.56;;;27.69;29.01
14902;BME280;7542;49.078;9.194;2023-03-18T01:39:24;98159.69;;;27.71;28.96
14902;BME280;7542;49.078;9.194;2023-03-18T01:40:26;98162.97;;;27.68;28.91
14902;BME280;7542;49.078;9.194;2023-03-18T01:41:29;98165.66;;;27.68;28.84
14902;BME280;7542;49.078;9.194;2023-03-18T01:42:32;98160.28;;;27.68;28.97
14902;BME280;7542;49.078;9.194;2023-03-18T01:43:38;98163.75;;;27.68;28.99
14902;BME280;7542;49.078;9.194;2023-03-18T01:44:41;98171.56;;;27.70;28.91
14902;BME280;7542;49.078;9.194;2023-03-18T01:45:52;98162.59;;;27.75;28.93
14902;BME280;7542;49.078;9.194;2023-03-18T01:46:54;98171.84;;;27.68;28.88
14902;BME280;7542;49.078;9.194;2023-03-18T01:47:57;98167.25;;;27.69;28.84
14902;BME280;7542;49.078;9.194;2023-03-18T01:49:02;98166.16;;;27.70;29.04
14902;BME280;7542;49.078;9.194;2023-03-18T01:50:05;98166.72;;;27.67;28.94
14902;BME280;7542;49.078;9.194;2023-03-18T01:51:09;98158.16;;;27.65;28.84
14902;BME280;7542;49.078;9.194;2023-03-18T01:52:19;98169.16;;;27.68;28.93
14902;BME280;7542;49.078;9.194;2023-03-18T01:53:22;98162.44;;;27.66;28.85
14902;BME280;7542;49.078;9.194;2023-03-18T01:54:28;98165.38;;;27.64;29.02
14902;BME280;7542;49.078;9.194;2023-03-18T01:55:33;98167.28;;;27.64;29.23
14902;BME280;7542;49.078;9.194;2023-03-18T01:56:39;98167.28;;;27.64;28.86
14902;BME280;7542;49.078;9.194;2023-03-18T01:57:43;98161.41;;;27.62;28.94
14902;BME280;7542;49.078;9.194;2023-03-18T01:58:50;98172.66;;;27.64;29.04
14902;BME280;7542;49.078;9.194;2023-03-18T01:59:55;98169.97;;;27.64;28.87
14902;BME280;7542;49.078;9.194;2023-03-18T02:01:07;98170.22;;;27.67;28.91
14902;BME280;7542;49.078;9.194;2023-03-18T02:02:14;98167.03;;;27.65;29.04
14902;BME280;7542;49.078;9.194;2023-03-18T02:03:18;98171.38;;;27.61;28.91
14902;BME280;7542;49.078;9.194;2023-03-18T02:04:25;98166.50;;;27.63;28.95
14902;BME280;7542;49.078;9.194;2023-03-18T02:05:29;98168.69;;;27.61;28.87
14902;BME280;7542;49.078;9.194;2023-03-18T02:06:31;98170.56;;;27.61;28.87
14902;BME280;7542;49.078;9.194;2023-03-18T02:07:35;98164.38;;;27.60;28.78
14902;BME280;7542;49.078;9.194;2023-03-18T02:08:38;98174.34;;;27.60;28.75
14902;BME280;7542;49.078;9.194;2023-03-18T02:09:40;98168.16;;;27.59;28.91
14902;BME280;7542;49.078;9.194;2023-03-18T02:10:43;98167.66;;;27.57;28.95
14902;BME280;7542;49.078;9.194;2023-03-18T02:11:47;98168.47;;;27.58;29.12
14902;BME280;7542;49.078;9.194;2023-03-18T02:12:59;98167.06;;;27.60;29.05
14902;BME280;7542;49.078;9.194;2023-03-18T02:14:02;98167.38;;;27.59;28.82
14902;BME280;7542;49.078;9.194;2023-03-18T02:15:14;98160.09;;;27.59;29.19
14902;BME280;7542;49.078;9.194;2023-03-18T02:16:29;98168.38;;;27.63;28.84
14902;BME280;7542;49.078;9.194;2023-03-18T02:17:39;98166.78;;;27.62;28.93
14902;BME280;7542;49.078;9.194;2023-03-18T02:22:17;98172.91;;;27.67;28.78
14902;BME280;7542;49.078;9.194;2023-03-18T02:23:51;98177.78;;;27.65;28.81
14902;BME280;7542;49.078;9.194;2023-03-18T02:27:56;98176.25;;;27.59;28.93
14902;BME280;7542;49.078;9.194;2023-03-18T02:29:02;98178.19;;;27.54;28.79
14902;BME280;7542;49.078;9.194;2023-03-18T02:30:15;98173.84;;;27.58;28.96
14902;BME280;7542;49.078;9.194;2023-03-18T02:31:19;98170.72;;;27.51;28.78
14902;BME280;7542;49.078;9.194;2023-03-18T02:32:27;98168.81;;;27.51;28.82
14902;BME280;7542;49.078;9.194;2023-03-18T02:33:34;98170.72;;;27.51;28.92
14902;BME280;7542;49.078;9.194;2023-03-18T02:34:37;98162.13;;;27.49;28.82
14902;BME280;7542;49.078;9.194;2023-03-18T02:35:45;98170.72;;;27.51;29.07
14902;BME280;7542;49.078;9.194;2023-03-18T02:36:48;98173.19;;;27.47;28.73
14902;BME280;7542;49.078;9.194;2023-03-18T02:37:49;98171.56;;;27.46;28.92
14902;BME280;7542;49.078;9.194;2023-03-18T02:38:51;98168.06;;;27.45;29.09
14902;BME280;7542;49.078;9.194;2023-03-18T02:39:53;98164.56;;;27.45;28.96
14902;BME280;7542;49.078;9.194;2023-03-18T02:40:55;98169.44;;;27.43;28.93
14902;BME280;7542;49.078;9.194;2023-03-18T02:41:57;98166.47;;;27.44;29.06
14902;BME280;7542;49.078;9.194;2023-03-18T02:43:30;98167.88;;;27.61;28.89
14902;BME280;7542;49.078;9.194;2023-03-18T02:44:40;98170.72;;;27.51;29.09
14902;BME280;7542;49.078;9.194;2023-03-18T02:47:16;98172.59;;;27.50;28.87
14902;BME280;7542;49.078;9.194;2023-03-18T02:48:26;98171.28;;;27.48;29.01
14902;BME280;7542;49.078;9.194;2023-03-18T02:49:30;98172.94;;;27.43;28.83
14902;BME280;7542;49.078;9.194;2023-03-18T02:50:33;98178.31;;;27.43;28.85
14902;BME280;7542;49.078;9.194;2023-03-18T02:51:36;98176.72;;;27.42;29.05
14902;BME280;7542;49.078;9.194;2023-03-18T02:52:38;98172.44;;;27.41;28.93
14902;BME280;7542;49.078;9.194;2023-03-18T02:53:41;98179.72;;;27.41;29.18
14902;BME280;7542;49.078;9.194;2023-03-18T02:54:43;98174.34;;;27.41;28.84
14902;BME280;7542;49.078;9.194;2023-03-18T02:55:46;98175.94;;;27.42;28.96
14902;BME280;7542;49.078;9.194;2023-03-18T02:56:48;98173.25;;;27.42;29.06
14902;BME280;7542;49.078;9.194;2023-03-18T02:57:50;98177.31;;;27.39;29.40
14902;BME280;7542;49.078;9.194;2023-03-18T02:58:52;98172.72;;;27.40;29.12
14902;BME280;7542;49.078;9.194;2023-03-18T02:59:54;98175.72;;;27.38;29.05
14902;BME280;7542;49.078;9.194;2023-03-18T03:00:56;98182.69;;;27.39;28.80
14902;BME280;7542;49.078;9.194;2023-03-18T03:01:58;98176.00;;;27.37;29.00
14902;BME280;7542;49.078;9.194;2023-03-18T03:03:00;98189.19;;;27.38;29.05
14902;BME280;7542;49.078;9.194;2023-03-18T03:04:03;98188.09;;;27.39;28.94
14902;BME280;7542;49.078;9.194;2023-03-18T03:05:06;98187.06;;;27.35;28.98
14902;BME280;7542;49.078;9.194;2023-03-18T03:06:10;98192.66;;;27.39;28.77
14902;BME280;7542;49.078;9.194;2023-03-18T03:07:12;98191.88;;;27.38;29.04
14902;BME280;7542;49.078;9.194;2023-03-18T03:08:14;98184.59;;;27.39;28.72
14902;BME280;7542;49.078;9.194;2023-03-18T03:09:17;98190.50;;;27.41;29.01
14902;BME280;7542;49.078;9.194;2023-03-18T03:10:19;98193.47;;;27.39;29.00
14902;BME280;7542;49.078;9.194;2023-03-18T03:11:22;98188.09;;;27.39;29.03
14902;BME280;7542;49.078;9.194;2023-03-18T03:12:24;98184.88;;;27.37;28.90
14902;BME280;7542;49.078;9.194;2023-03-18T03:13:26;98188.38;;;27.38;28.90
14902;BME280;7542;49.078;9.194;2023-03-18T03:14:28;98194.84;;;27.37;28.92
14902;BME280;7542;49.078;9.194;2023-03-18T03:15:31;98188.69;;;27.36;29.14
14902;BME280;7542;49.078;9.194;2023-03-18T03:16:34;98183.78;;;27.38;28.85
14902;BME280;7542;49.078;9.194;2023-03-18T03:17:36;98184.88;;;27.37;29.15
14902;BME280;7542;49.078;9.194;2023-03-18T03:18:38;98185.97;;;27.36;28.88
14902;BME280;7542;49.078;9.194;2023-03-18T03:19:41;98191.38;;;27.36;28.89
14902;BME280;7542;49.078;9.194;2023-03-18T03:20:43;98197.00;;;27.35;28.91
14902;BME280;7542;49.078;9.194;2023-03-18T03:21:45;98190.81;;;27.34;29.07
14902;BME280;7542;49.078;9.194;2023-03-18T03:22:47;98190.81;;;27.34;29.01
14902;BME280;7542;49.078;9.194;2023-03-18T03:23:49;98194.31;;;27.35;28.92
14902;BME280;7542;49.078;9.194;2023-03-18T03:24:52;98196.22;;;27.34;29.12
14902;BME280;7542;49.078;9.194;2023-03-18T03:25:54;98209.69;;;27.34;28.88
14902;BME280;7542;49.078;9.194;2023-03-18T03:26:57;98205.38;;;27.33;29.10
14902;BME280;7542;49.078;9.194;2023-03-18T03:27:59;98200.78;;;27.34;28.91
14902;BME280;7542;49.078;9.194;2023-03-18T03:29:03;98199.19;;;27.33;28.94
14902;BME280;7542;49.078;9.194;2023-03-18T03:30:10;98207.53;;;27.36;29.32
14902;BME280;7542;49.078;9.194;2023-03-18T03:31:12;98202.69;;;27.33;29.09
14902;BME280;7542;49.078;9.194;2023-03-18T03:32:15;98198.09;;;27.34;28.89
14902;BME280;7542;49.078;9.194;2023-03-18T03:33:17;98194.31;;;27.35;28.70
14902;BME280;7542;49.078;9.194;2023-03-18T03:34:19;98206.47;;;27.32;28.93
14902;BME280;7542;49.078;9.194;2023-03-18T03:35:22;98199.50;;;27.31;28.99
14902;BME280;7542;49.078;9.194;2023-03-18T03:36:25;98206.97;;;27.34;29.18
14902;BME280;7542;49.078;9.194;2023-03-18T03:37:27;98206.19;;;27.34;28.89
14902;BME280;7542;49.078;9.194;2023-03-18T03:38:29;98211.84;;;27.32;28.96
14902;BME280;7542;49.078;9.194;2023-03-18T03:39:30;98211.06;;;27.32;29.10
14902;BME280;7542;49.078;9.194;2023-03-18T03:40:33;98202.97;;;27.32;29.09
14902;BME280;7542;49.078;9.194;2023-03-18T03:41:35;98214.03;;;27.30;29.13
14902;BME280;7542;49.078;9.194;2023-03-18T03:42:37;98208.94;;;27.29;28.99
14902;BME280;7542;49.078;9.194;2023-03-18T03:43:40;98212.16;;;27.31;29.07
14902;BME280;7542;49.078;9.194;2023-03-18T03:44:42;98211.34;;;27.30;29.18
14902;BME280;7542;49.078;9.194;2023-03-18T03:45:44;98206.25;;;27.29;29.18
14902;BME280;7542;49.078;9.194;2023-03-18T03:46:46;98205.97;;;27.30;29.03
14902;BME280;7542;49.078;9.194;2023-03-18T03:47:49;98205.97;;;27.30;28.99
14902;BME280;7542;49.078;9.194;2023-03-18T03:48:51;98211.06;;;27.32;29.01
14902;BME280;7542;49.078;9.194;2023-03-18T03:49:53;98210.56;;;27.30;29.09
14902;BME280;7542;49.078;9.194;2023-03-18T03:50:55;98209.47;;;27.31;29.09
14902;BME280;7542;49.078;9.194;2023-03-18T03:51:58;98208.66;;;27.30;28.73
14902;BME280;7542;49.078;9.194;2023-03-18T03:53:00;98208.94;;;27.29;29.05
14902;BME280;7542;49.078;9.194;2023-03-18T03:54:03;98209.25;;;27.27;29.08
14902;BME280;7542;49.078;9.194;2023-03-18T03:55:08;98203.06;;;27.27;28.82
14902;BME280;7542;49.078;9.194;2023-03-18T03:56:10;98208.16;;;27.28;28.93
14902;BME280;7542;49.078;9.194;2023-03-18T03:57:12;98210.84;;;27.28;29.03
14902;BME280;7542;49.078;9.194;2023-03-18T03:58:14;98211.94;;;27.27;28.94
14902;BME280;7542;49.078;9.194;2023-03-18T03:59:17;98201.16;;;27.27;29.10
14902;BME280;7542;49.078;9.194;2023-03-18T04:00:22;98201.16;;;27.27;29.03
14902;BME280;7542;49.078;9.194;2023-03-18T04:01:24;98207.34;;;27.28;28.92
14902;BME280;7542;49.078;9.194;2023-03-18T04:02:27;98201.16;;;27.27;29.09
14902;BME280;7542;49.078;9.194;2023-03-18T04:03:30;98203.34;;;27.25;28.97
14902;BME280;7542;49.078;9.194;2023-03-18T04:04:31;98203.59;;;27.24;29.12
14902;BME280;7542;49.078;9.194;2023-03-18T04:05:34;98205.50;;;27.23;29.20
14902;BME280;7542;49.078;9.194;2023-03-18T04:06:35;98205.25;;;27.25;28.96
14902;BME280;7542;49.078;9.194;2023-03-18T04:07:39;98209.78;;;27.24;28.91
14902;BME280;7542;49.078;9.194;2023-03-18T04:08:41;98207.41;;;27.23;29.23
14902;BME280;7542;49.078;9.194;2023-03-18T04:09:43;98209.78;;;27.24;29.12
14902;BME280;7542;49.078;9.194;2023-03-18T04:10:45;98208.47;;;27.22;29.00
14902;BME280;7542;49.078;9.194;2023-03-18T04:11:47;98206.31;;;27.24;29.13
14902;BME280;7542;49.078;9.194;2023-03-18T04:12:49;98208.19;;;27.23;28.99
14902;BME280;7542;49.078;9.194;2023-03-18T04:13:51;98204.69;;;27.23;29.04
14902;BME280;7542;49.078;9.194;2023-03-18T04:14:54;98205.78;;;27.22;28.98
14902;BME280;7542;49.078;9.194;2023-03-18T04:15:56;98206.31;;;27.24;29.05
14902;BME280;7542;49.078;9.194;2023-03-18T04:16:58;98210.38;;;27.21;28.86
14902;BME280;7542;49.078;9.194;2023-03-18T04:18:01;98214.66;;;27.22;29.16
14902;BME280;7542;49.078;9.194;2023-03-18T04:19:07;98220.84;;;27.23;29.11
14902;BME280;7542;49.078;9.194;2023-03-18T04:20:11;98217.34;;;27.22;29.14
14902;BME280;7542;49.078;9.194;2023-03-18T04:21:13;98210.38;;;27.21;29.06
14902;BME280;7542;49.078;9.194;2023-03-18T04:22:15;98214.16;;;27.20;28.88
14902;BME280;7542;49.078;9.194;2023-03-18T04:23:18;98210.38;;;27.21;29.00
14902;BME280;7542;49.078;9.194;2023-03-18T04:24:22;98213.34;;;27.20;29.00
14902;BME280;7542;49.078;9.194;2023-03-18T04:25:24;98210.66;;;27.20;28.96
14902;BME280;7542;49.078;9.194;2023-03-18T04:26:25;98219.03;;;27.18;29.20
14902;BME280;7542;49.078;9.194;2023-03-18T04:27:29;98208.78;;;27.20;29.05
14902;BME280;7542;49.078;9.194;2023-03-18T04:28:31;98213.06;;;27.21;28.77
14902;BME280;7542;49.078;9.194;2023-03-18T04:29:33;98217.94;;;27.19;29.17
14902;BME280;7542;49.078;9.194;2023-03-18T04:30:35;98214.75;;;27.17;28.93
14902;BME280;7542;49.078;9.194;2023-03-18T04:31:38;98213.66;;;27.18;28.76
14902;BME280;7542;49.078;9.194;2023-03-18T04:32:40;98218.22;;;27.18;29.10
14902;BME280;7542;49.078;9.194;2023-03-18T04:33:42;98212.84;;;27.18;29.09
14902;BME280;7542;49.078;9.194;2023-03-18T04:34:45;98214.75;;;27.17;29.29
14902;BME280;7542;49.078;9.194;2023-03-18T04:35:47;98217.72;;;27.15;29.00
14902;BME280;7542;49.078;9.194;2023-03-18T04:36:50;98212.06;;;27.17;29.13
14902;BME280;7542;49.078;9.194;2023-03-18T04:37:51;98216.63;;;27.17;29.17
14902;BME280;7542;49.078;9.194;2023-03-18T04:38:55;98208.56;;;27.17;28.95
14902;BME280;7542;49.078;9.194;2023-03-18T04:39:57;98215.84;;;27.16;29.16
14902;BME280;7542;49.078;9.194;2023-03-18T04:40:59;98218.00;;;27.14;28.95
14902;BME280;7542;49.078;9.194;2023-03-18T04:42:01;98219.63;;;27.15;29.12
14902;BME280;7542;49.078;9.194;2023-03-18T04:43:03;98218.00;;;27.14;29.21
14902;BME280;7542;49.078;9.194;2023-03-18T04:44:06;98215.03;;;27.15;29.10
14902;BME280;7542;49.078;9.194;2023-03-18T04:45:09;98219.63;;;27.15;28.91
14902;BME280;7542;49.078;9.194;2023-03-18T04:46:11;98223.41;;;27.14;29.11
14902;BME280;7542;49.078;9.194;2023-03-18T04:47:13;98222.84;;;27.12;29.01
14902;BME280;7542;49.078;9.194;2023-03-18T04:48:15;98222.56;;;27.13;29.17
14902;BME280;7542;49.078;9.194;2023-03-18T04:49:17;98215.31;;;27.14;28.83
14902;BME280;7542;49.078;9.194;2023-03-18T04:50:19;98217.47;;;27.12;28.92
14902;BME280;7542;49.078;9.194;2023-03-18T04:51:21;98217.19;;;27.13;28.94
14902;BME280;7542;49.078;9.194;2023-03-18T04:52:23;98220.16;;;27.12;28.96
14902;BME280;7542;49.078;9.194;2023-03-18T04:53:25;98223.66;;;27.12;29.08
14902;BME280;7542;49.078;9.194;2023-03-18T04:54:27;98219.66;;;27.10;29.09
14902;BME280;7542;49.078;9.194;2023-03-18T04:55:29;98222.34;;;27.10;29.01
14902;BME280;7542;49.078;9.194;2023-03-18T04:56:32;98222.34;;;27.10;29.21
14902;BME280;7542;49.078;9.194;2023-03-18T04:57:35;98226.94;;;27.09;28.85
14902;BME280;7542;49.078;9.194;2023-03-18T04:58:38;98217.75;;;27.10;28.86
14902;BME280;7542;49.078;9.194;2023-03-18T04:59:40;98220.16;;;27.12;29.01
14902;BME280;7542;49.078;9.194;2023-03-18T05:00:42;98221.25;;;27.11;29.03
14902;BME280;7542;49.078;9.194;2023-03-18T05:01:44;98214.78;;;27.12;28.92
14902;BME280;7542;49.078;9.194;2023-03-18T05:02:47;98219.38;;;27.11;29.08
14902;BME280;7542;49.078;9.194;2023-03-18T05:03:49;98218.56;;;27.11;29.00
14902;BME280;7542;49.078;9.194;2023-03-18T05:04:51;98218.06;;;27.09;28.85
14902;BME280;7542;49.078;9.194;2023-03-18T05:05:53;98213.47;;;27.09;28.83
14902;BME280;7542;49.078;9.194;2023-03-18T05:06:55;98215.38;;;27.09;28.95
14902;BME280;7542;49.078;9.194;2023-03-18T05:07:57;98221.84;;;27.08;28.94
14902;BME280;7542;49.078;9.194;2023-03-18T05:09:00;98225.84;;;27.10;29.16
14902;BME280;7542;49.078;9.194;2023-03-18T05:10:07;98227.16;;;27.13;29.17
14902;BME280;7542;49.078;9.194;2023-03-18T05:11:09;98220.47;;;27.10;29.14
14902;BME280;7542;49.078;9.194;2023-03-18T05:12:13;98221.03;;;27.07;29.06
14902;BME280;7542;49.078;9.194;2023-03-18T05:13:16;98221.84;;;27.08;28.91
14902;BME280;7542;49.078;9.194;2023-03-18T05:14:18;98217.84;;;27.05;29.06
14902;BME280;7542;49.078;9.194;2023-03-18T05:15:20;98224.00;;;27.06;29.09
14902;BME280;7542;49.078;9.194;2023-03-18T05:16:22;98215.94;;;27.06;29.07
14902;BME280;7542;49.078;9.194;2023-03-18T05:17:25;98226.41;;;27.07;29.13
14902;BME280;7542;49.078;9.194;2023-03-18T05:18:27;98227.50;;;27.06;28.88
14902;BME280;7542;49.078;9.194;2023-03-18T05:19:29;98227.50;;;27.06;29.07
14902;BME280;7542;49.078;9.194;2023-03-18T05:20:31;98219.72;;;27.05;28.93
14902;BME280;7542;49.078;9.194;2023-03-18T05:21:33;98225.66;;;27.02;29.18
14902;BME280;7542;49.078;9.194;2023-03-18T05:22:36;98223.50;;;27.04;28.92
14902;BME280;7542;49.078;9.194;2023-03-18T05:23:38;98220.28;;;27.02;29.06
14902;BME280;7542;49.078;9.194;2023-03-18T05:24:41;98234.78;;;27.01;29.09
14902;BME280;7542;49.078;9.194;2023-03-18T05:25:48;98223.22;;;27.05;29.00
14902;BME280;7542;49.078;9.194;2023-03-18T05:26:50;98228.88;;;27.04;28.97
14902;BME280;7542;49.078;9.194;2023-03-18T05:27:52;98226.19;;;27.04;28.84
14902;BME280;7542;49.078;9.194;2023-03-18T05:28:55;98225.41;;;27.03;29.00
14902;BME280;7542;49.078;9.194;2023-03-18T05:29:57;98225.41;;;27.03;29.05
14902;BME280;7542;49.078;9.194;2023-03-18T05:30:59;98228.88;;;27.04;28.96
14902;BME280;7542;49.078;9.194;2023-03-18T05:32:01;98228.34;;;27.02;29.09
14902;BME280;7542;49.078;9.194;2023-03-18T05:33:04;98222.13;;;27.01;28.92
14902;BME280;7542;49.078;9.194;2023-03-18T05:34:07;98226.72;;;27.01;29.10
14902;BME280;7542;49.078;9.194;2023-03-18T05:35:10;98228.59;;;27.00;28.96
14902;BME280;7542;49.078;9.194;2023-03-18T05:36:12;98222.41;;;27.00;29.14
14902;BME280;7542;49.078;9.194;2023-03-18T05:37:15;98225.66;;;27.02;28.91
14902;BME280;7542;49.078;9.194;2023-03-18T05:38:17;98234.53;;;27.02;28.88
14902;BME280;7542;49.078;9.194;2023-03-18T05:39:19;98227.28;;;27.03;29.04
14902;BME280;7542;49.078;9.194;2023-03-18T05:40:21;98231.84;;;27.02;28.78
14902;BME280;7542;49.078;9.194;2023-03-18T05:41:24;98226.44;;;27.02;28.92
14902;BME280;7542;49.078;9.194;2023-03-18T05:42:26;98229.69;;;27.04;29.06
14902;BME280;7542;49.078;9.194;2023-03-18T05:43:28;98225.09;;;27.05;29.27
14902;BME280;7542;49.078;9.194;2023-03-18T05:44:31;98229.69;;;27.04;29.43
14902;BME280;7542;49.078;9.194;2023-03-18T05:45:33;98233.97;;;27.05;29.33
14902;BME280;7542;49.078;9.194;2023-03-18T05:46:37;98233.19;;;27.05;29.13
14902;BME280;7542;49.078;9.194;2023-03-18T05:47:39;98228.09;;;27.03;29.29